createdAt,value
2018-08-17T00:01:53.538Z,4.43
2018-08-17T00:04:20.708Z,4.93
2018-08-17T00:06:47.875Z,5.70
2018-08-17T00:09:15.044Z,6.10
2018-08-17T00:11:42.182Z,9.07
2018-08-17T00:14:09.654Z,9.70
2018-08-17T00:16:37.091Z,5.23
2018-08-17T00:19:04.572Z,5.00
2018-08-17T00:21:31.743Z,5.40
2018-08-17T00:23:59.069Z,6.70
2018-08-17T00:26:26.419Z,5.27
2018-08-17T00:28:53.587Z,5.43
2018-08-17T00:31:20.786Z,5.80
2018-08-17T00:33:48.183Z,6.50
2018-08-17T00:36:15.362Z,5.07
2018-08-17T00:38:42.546Z,6.07
2018-08-17T00:41:09.707Z,5.90
2018-08-17T00:43:36.874Z,5.50
2018-08-17T00:46:04.030Z,5.90
2018-08-17T00:48:31.227Z,6.53
2018-08-17T00:50:58.384Z,5.03
2018-08-17T00:53:25.541Z,5.47
2018-08-17T00:55:52.695Z,8.77
2018-08-17T00:58:19.874Z,4.90
2018-08-17T01:00:47.138Z,4.50
2018-08-17T01:03:14.316Z,4.70
2018-08-17T01:05:41.472Z,4.67
2018-08-17T01:08:08.814Z,4.70
2018-08-17T01:10:35.997Z,5.40
2018-08-17T01:13:05.182Z,4.67
2018-08-17T01:15:32.342Z,4.30
2018-08-17T01:17:59.515Z,5.03
2018-08-17T01:20:26.679Z,5.07
2018-08-17T01:22:53.856Z,5.80
2018-08-17T01:25:21.011Z,5.70
2018-08-17T01:27:48.195Z,5.60
2018-08-17T01:30:15.350Z,7.87
2018-08-17T01:32:42.512Z,6.23
2018-08-17T01:35:09.689Z,5.23
2018-08-17T01:37:36.885Z,6.07
2018-08-17T01:40:04.307Z,6.00
2018-08-17T01:42:31.450Z,6.00
2018-08-17T01:44:58.627Z,7.30
2018-08-17T01:47:25.778Z,5.33
2018-08-17T01:49:52.955Z,6.27
2018-08-17T01:52:20.109Z,5.70
2018-08-17T01:54:47.280Z,7.60
2018-08-17T01:57:14.443Z,7.50
2018-08-17T01:59:41.610Z,5.83
2018-08-17T02:02:08.766Z,11.30
2018-08-17T02:04:35.931Z,5.97
2018-08-17T02:07:03.127Z,6.43
2018-08-17T02:09:30.289Z,11.87
2018-08-17T02:11:57.452Z,5.90
2018-08-17T02:14:24.622Z,6.50
2018-08-17T02:16:51.768Z,5.70
2018-08-17T02:19:18.942Z,6.87
2018-08-17T02:21:46.094Z,6.83
2018-08-17T02:24:13.294Z,6.13
2018-08-17T02:26:40.452Z,8.43
2018-08-17T02:29:07.615Z,6.80
2018-08-17T02:31:34.766Z,6.07
2018-08-17T02:34:01.931Z,6.37
2018-08-17T02:36:29.083Z,9.10
2018-08-17T02:38:56.272Z,6.63
2018-08-17T02:41:23.434Z,6.40
2018-08-17T02:43:50.611Z,5.83
2018-08-17T02:46:17.767Z,5.97
2018-08-17T02:48:44.942Z,6.13
2018-08-17T02:51:12.102Z,5.97
2018-08-17T02:53:39.285Z,7.07
2018-08-17T02:56:06.443Z,6.57
2018-08-17T02:58:33.620Z,6.80
2018-08-17T03:01:00.774Z,6.10
2018-08-17T03:03:27.934Z,5.90
2018-08-17T03:05:55.078Z,6.60
2018-08-17T03:08:22.248Z,8.93
2018-08-17T03:10:49.423Z,6.00
2018-08-17T03:13:16.567Z,7.13
2018-08-17T03:15:43.732Z,7.07
2018-08-17T03:18:10.895Z,6.40
2018-08-17T03:20:38.069Z,6.57
2018-08-17T03:23:05.240Z,9.57
2018-08-17T03:25:32.411Z,6.57
2018-08-17T03:27:59.583Z,7.20
2018-08-17T03:30:26.746Z,9.40
2018-08-17T03:32:53.903Z,7.83
2018-08-17T03:35:21.065Z,6.70
2018-08-17T03:37:48.222Z,6.40
2018-08-17T03:40:15.382Z,7.13
2018-08-17T03:42:42.534Z,7.43
2018-08-17T03:45:09.717Z,7.10
2018-08-17T03:47:36.862Z,7.83
2018-08-17T03:50:04.347Z,7.53
2018-08-17T03:52:31.506Z,9.00
2018-08-17T03:54:58.670Z,6.27
2018-08-17T03:57:25.846Z,6.50
2018-08-17T03:59:53.007Z,6.50
2018-08-17T04:02:20.156Z,7.27
2018-08-17T04:04:47.330Z,7.80
2018-08-17T04:07:14.471Z,7.13
2018-08-17T04:09:41.642Z,6.60
2018-08-17T04:12:08.791Z,6.63
2018-08-17T04:14:35.971Z,8.17
2018-08-17T04:17:03.134Z,6.93
2018-08-17T04:19:30.303Z,8.20
2018-08-17T04:21:57.450Z,11.10
2018-08-17T04:24:24.620Z,8.10
2018-08-17T04:26:51.765Z,7.60
2018-08-17T04:29:18.941Z,7.43
2018-08-17T04:31:46.097Z,8.40
2018-08-17T04:34:13.247Z,9.43
2018-08-17T04:36:40.465Z,7.90
2018-08-17T04:39:07.741Z,8.53
2018-08-17T04:41:34.910Z,7.83
2018-08-17T04:44:02.061Z,7.93
2018-08-17T04:46:29.236Z,7.87
2018-08-17T04:48:56.398Z,7.60
2018-08-17T04:51:23.570Z,7.40
2018-08-17T04:53:50.727Z,7.30
2018-08-17T04:56:17.894Z,12.13
2018-08-17T04:58:45.063Z,8.50
2018-08-17T05:01:12.236Z,6.70
2018-08-17T05:03:39.385Z,8.10
2018-08-17T05:06:06.563Z,9.43
2018-08-17T05:08:33.712Z,6.70
2018-08-17T05:11:00.955Z,7.10
2018-08-17T05:13:28.146Z,6.47
2018-08-17T05:15:55.293Z,7.40
2018-08-17T05:18:22.443Z,8.00
2018-08-17T05:20:49.628Z,8.60
2018-08-17T05:23:16.849Z,8.80
2018-08-17T05:25:43.960Z,7.10
2018-08-17T05:28:11.124Z,9.73
2018-08-17T05:30:38.290Z,10.83
2018-08-17T05:33:05.454Z,7.80
2018-08-17T05:35:32.632Z,10.57
2018-08-17T05:37:59.802Z,9.10
2018-08-17T05:40:26.998Z,11.17
2018-08-17T05:42:54.167Z,10.63
2018-08-17T05:45:21.347Z,9.53
2018-08-17T05:47:48.507Z,7.60
2018-08-17T05:50:15.708Z,7.70
2018-08-17T05:52:42.992Z,9.70
2018-08-17T05:55:10.150Z,6.97
2018-08-17T05:57:37.343Z,8.50
2018-08-17T06:00:05.823Z,14.60
2018-08-17T06:02:33.040Z,11.07
2018-08-17T06:05:00.230Z,11.43
2018-08-17T06:07:27.703Z,11.23
2018-08-17T06:09:54.874Z,11.50
2018-08-17T06:12:22.059Z,9.53
2018-08-17T06:14:49.221Z,10.03
2018-08-17T06:17:16.407Z,10.40
2018-08-17T06:19:43.638Z,9.53
2018-08-17T06:22:15.119Z,9.33
2018-08-17T06:24:42.292Z,9.47
2018-08-17T06:27:09.470Z,9.53
2018-08-17T06:29:36.634Z,15.07
2018-08-17T06:32:03.812Z,9.83
2018-08-17T06:34:30.999Z,11.53
2018-08-17T06:36:58.166Z,10.63
2018-08-17T06:39:25.377Z,9.90
2018-08-17T06:41:52.534Z,14.17
2018-08-17T06:44:19.726Z,11.27
2018-08-17T06:46:46.902Z,12.20
2018-08-17T06:49:14.106Z,14.20
2018-08-17T06:51:41.267Z,12.27
2018-08-17T06:54:08.452Z,13.37
2018-08-17T06:56:35.643Z,16.07
2018-08-17T06:59:02.834Z,21.50
2018-08-17T07:01:30.035Z,15.13
2018-08-17T07:03:57.249Z,16.87
2018-08-17T07:06:24.451Z,19.10
2018-08-17T07:08:51.765Z,14.73
2018-08-17T07:11:18.819Z,15.07
2018-08-17T07:13:45.988Z,18.37
2018-08-17T07:16:13.255Z,16.73
2018-08-17T07:18:40.414Z,16.63
2018-08-17T07:21:07.943Z,17.83
2018-08-17T07:23:35.106Z,22.97
2018-08-17T07:26:02.519Z,19.93
2018-08-17T07:28:29.811Z,20.23
2018-08-17T07:30:56.989Z,19.57
2018-08-17T07:33:24.188Z,18.33
2018-08-17T07:35:51.426Z,21.73
2018-08-17T07:38:18.573Z,20.17
2018-08-17T07:40:45.748Z,24.73
2018-08-17T07:43:12.939Z,20.33
2018-08-17T07:45:40.108Z,22.87
2018-08-17T07:48:07.404Z,21.20
2018-08-17T07:50:34.506Z,21.97
2018-08-17T07:53:01.712Z,24.27
2018-08-17T07:55:29.375Z,22.93
2018-08-17T07:57:56.587Z,25.93
2018-08-17T08:00:23.756Z,20.47
2018-08-17T08:02:50.973Z,23.87
2018-08-17T08:05:18.182Z,25.80
2018-08-17T08:07:45.359Z,23.00
2018-08-17T08:10:12.563Z,22.13
2018-08-17T08:12:39.769Z,23.30
2018-08-17T08:15:07.131Z,32.60
2018-08-17T08:17:34.320Z,27.43
2018-08-17T08:20:07.036Z,26.97
2018-08-17T08:22:34.251Z,26.67
2018-08-17T08:25:01.540Z,22.97
2018-08-17T08:27:28.796Z,25.90
2018-08-17T08:29:55.998Z,26.50
2018-08-17T08:32:23.187Z,31.13
2018-08-17T08:34:50.385Z,30.87
2018-08-17T08:37:17.559Z,26.37
2018-08-17T08:39:44.757Z,23.50
2018-08-17T08:42:11.952Z,26.00
2018-08-17T08:44:39.119Z,23.60
2018-08-17T08:47:06.312Z,22.63
2018-08-17T08:49:33.500Z,25.43
2018-08-17T08:52:00.711Z,25.10
2018-08-17T08:54:27.871Z,26.90
2018-08-17T08:56:55.078Z,23.17
2018-08-17T08:59:22.253Z,25.47
2018-08-17T09:01:49.521Z,23.47
2018-08-17T09:04:16.658Z,27.93
2018-08-17T09:06:43.858Z,25.63
2018-08-17T09:09:11.069Z,23.90
2018-08-17T09:11:38.312Z,26.13
2018-08-17T09:14:05.606Z,27.33
2018-08-17T09:16:32.767Z,25.90
2018-08-17T09:19:00.193Z,25.07
2018-08-17T09:21:27.371Z,27.77
2018-08-17T09:23:54.746Z,24.13
2018-08-17T09:26:21.941Z,25.23
2018-08-17T09:28:49.210Z,39.43
2018-08-17T09:31:16.392Z,21.87
2018-08-17T09:33:43.579Z,23.23
2018-08-17T09:36:10.858Z,21.83
2018-08-17T09:38:38.007Z,21.57
2018-08-17T09:41:05.494Z,20.83
2018-08-17T09:43:32.668Z,21.97
2018-08-17T09:45:59.879Z,18.90
2018-08-17T09:48:27.031Z,23.30
2018-08-17T09:50:54.217Z,20.87
2018-08-17T09:53:21.408Z,22.17
2018-08-17T09:55:48.573Z,21.83
2018-08-17T09:58:15.776Z,21.60
2018-08-17T10:00:55.051Z,22.37
2018-08-17T10:03:27.797Z,20.57
2018-08-17T10:06:00.468Z,21.43
2018-08-17T10:08:31.378Z,20.50
2018-08-17T10:10:58.720Z,22.00
2018-08-17T10:13:25.923Z,18.10
2018-08-17T10:15:53.262Z,18.50
2018-08-17T10:18:20.911Z,19.30
2018-08-17T10:20:48.287Z,18.60
2018-08-17T10:23:20.836Z,19.90
2018-08-17T10:25:48.023Z,22.30
2018-08-17T10:28:15.185Z,19.37
2018-08-17T10:30:42.371Z,18.03
2018-08-17T10:33:16.138Z,21.30
2018-08-17T10:35:43.353Z,30.30
2018-08-17T10:38:10.538Z,18.07
2018-08-17T10:40:37.755Z,19.57
2018-08-17T10:43:05.659Z,17.37
2018-08-17T10:45:33.197Z,20.83
2018-08-17T10:48:00.462Z,24.00
2018-08-17T10:50:29.927Z,19.90
2018-08-17T10:52:58.442Z,16.17
2018-08-17T10:55:33.445Z,15.60
2018-08-17T10:58:00.596Z,15.77
2018-08-17T11:00:27.796Z,17.43
2018-08-17T11:02:54.974Z,14.97
2018-08-17T11:05:22.163Z,14.60
2018-08-17T11:07:49.543Z,15.70
2018-08-17T11:10:16.716Z,16.27
2018-08-17T11:12:44.868Z,16.77
2018-08-17T11:15:12.074Z,17.53
2018-08-17T11:17:39.471Z,14.87
2018-08-17T11:20:06.682Z,15.23
2018-08-17T11:22:34.263Z,14.90
2018-08-17T11:25:02.874Z,15.03
2018-08-17T11:27:30.073Z,11.90
2018-08-17T11:29:57.249Z,14.43
2018-08-17T11:32:24.419Z,11.40
2018-08-17T11:34:53.826Z,13.87
2018-08-17T11:37:21.466Z,10.20
2018-08-17T11:39:54.750Z,12.63
2018-08-17T11:42:21.901Z,11.00
2018-08-17T11:44:49.066Z,19.97
2018-08-17T11:47:16.278Z,11.70
2018-08-17T11:49:43.451Z,9.87
2018-08-17T11:52:10.626Z,9.83
2018-08-17T11:54:37.826Z,15.67
2018-08-17T11:57:04.992Z,11.53
2018-08-17T11:59:32.158Z,12.20
2018-08-17T12:01:59.422Z,10.20
2018-08-17T12:04:26.523Z,8.07
2018-08-17T12:06:53.707Z,10.90
2018-08-17T12:09:20.886Z,9.17
2018-08-17T12:11:48.047Z,7.80
2018-08-17T12:14:15.247Z,7.80
2018-08-17T12:16:42.397Z,7.30
2018-08-17T12:19:09.574Z,7.63
2018-08-17T12:21:36.759Z,8.27
2018-08-17T12:24:03.916Z,9.63
2018-08-17T12:26:32.682Z,9.13
2018-08-17T12:28:59.841Z,8.07
2018-08-17T12:31:27.027Z,8.27
2018-08-17T12:33:54.190Z,9.00
2018-08-17T12:36:21.382Z,7.60
2018-08-17T12:38:48.579Z,10.47
2018-08-17T12:41:15.729Z,8.37
2018-08-17T12:43:42.923Z,8.07
2018-08-17T12:46:10.076Z,7.83
2018-08-17T12:48:37.243Z,9.30
2018-08-17T12:51:05.542Z,8.93
2018-08-17T12:53:32.718Z,9.30
2018-08-17T12:55:59.901Z,9.40
2018-08-17T12:58:27.062Z,9.50
2018-08-17T13:00:54.266Z,9.03
2018-08-17T13:03:21.423Z,9.27
2018-08-17T13:05:48.615Z,8.67
2018-08-17T13:08:15.799Z,7.50
2018-08-17T13:10:43.008Z,8.70
2018-08-17T13:13:11.030Z,11.00
2018-08-17T13:15:40.939Z,9.50
2018-08-17T13:18:14.484Z,14.97
2018-08-17T13:20:41.647Z,17.33
2018-08-17T13:23:08.971Z,9.10
2018-08-17T13:25:36.023Z,9.53
2018-08-17T13:28:03.183Z,9.77
2018-08-17T13:30:30.363Z,11.40
2018-08-17T13:32:57.522Z,8.30
2018-08-17T13:35:24.725Z,10.50
2018-08-17T13:37:51.879Z,12.70
2018-08-17T13:40:19.064Z,12.77
2018-08-17T13:42:46.214Z,9.00
2018-08-17T13:45:13.419Z,11.33
2018-08-17T13:47:40.618Z,9.57
2018-08-17T13:50:07.778Z,11.80
2018-08-17T13:52:35.048Z,9.57
2018-08-17T13:55:02.242Z,10.23
2018-08-17T13:57:29.401Z,13.90
2018-08-17T13:59:56.583Z,11.23
2018-08-17T14:02:23.735Z,9.27
2018-08-17T14:04:50.943Z,10.20
2018-08-17T14:07:18.159Z,11.00
2018-08-17T14:09:45.338Z,9.93
2018-08-17T14:12:12.497Z,12.40
2018-08-17T14:14:39.689Z,10.20
2018-08-17T14:17:06.967Z,9.70
2018-08-17T14:19:34.242Z,14.83
2018-08-17T14:22:01.507Z,12.60
2018-08-17T14:24:28.665Z,10.20
2018-08-17T14:26:55.842Z,7.17
2018-08-17T14:29:23.008Z,7.60
2018-08-17T14:31:50.200Z,6.40
2018-08-17T14:34:17.396Z,6.33
2018-08-17T14:36:44.547Z,7.13
2018-08-17T14:39:11.734Z,6.37
2018-08-17T14:41:56.810Z,5.83
2018-08-17T14:44:24.192Z,7.83
2018-08-17T14:46:51.548Z,7.23
2018-08-17T14:49:18.735Z,6.57
2018-08-17T14:51:46.067Z,12.53
2018-08-17T14:54:13.223Z,11.40
2018-08-17T14:56:40.404Z,8.83
2018-08-17T14:59:07.689Z,12.03
2018-08-17T15:01:35.066Z,10.50
2018-08-17T15:04:02.217Z,8.47
2018-08-17T15:06:29.424Z,9.80
2018-08-17T15:08:56.606Z,10.63
2018-08-17T15:11:23.810Z,10.03
2018-08-17T15:13:51.106Z,11.80
2018-08-17T15:16:18.271Z,11.30
2018-08-17T15:18:45.554Z,10.90
2018-08-17T15:21:12.643Z,11.03
2018-08-17T15:23:39.803Z,12.23
2018-08-17T15:26:07.174Z,12.90
2018-08-17T15:28:34.485Z,11.20
2018-08-17T15:31:01.639Z,11.87
2018-08-17T15:33:28.824Z,12.63
2018-08-17T15:35:56.011Z,12.77
2018-08-17T15:38:23.182Z,12.70
2018-08-17T15:40:50.409Z,12.90
2018-08-17T15:43:18.675Z,12.30
2018-08-17T15:45:46.434Z,11.70
2018-08-17T15:48:13.775Z,10.77
2018-08-17T15:50:40.970Z,10.83
2018-08-17T15:53:08.142Z,11.40
2018-08-17T15:55:35.360Z,12.00
2018-08-17T15:58:02.598Z,10.93
2018-08-17T16:00:29.812Z,13.23
2018-08-17T16:02:56.978Z,20.40
2018-08-17T16:05:24.144Z,12.93
2018-08-17T16:07:51.338Z,13.87
2018-08-17T16:10:18.532Z,13.30
2018-08-17T16:12:45.931Z,17.97
2018-08-17T16:15:13.104Z,16.07
2018-08-17T16:17:40.284Z,14.27
2018-08-17T16:20:08.278Z,16.13
2018-08-17T16:22:35.501Z,18.63
2018-08-17T16:25:02.792Z,17.53
2018-08-17T16:27:30.036Z,17.23
2018-08-17T16:29:57.229Z,25.93
2018-08-17T16:32:24.416Z,18.77
2018-08-17T16:34:51.617Z,19.40
2018-08-17T16:37:18.817Z,20.60
2018-08-17T16:39:51.390Z,21.40
2018-08-17T16:42:23.791Z,21.00
2018-08-17T16:44:51.061Z,28.03
2018-08-17T16:47:18.210Z,21.40
2018-08-17T16:49:45.386Z,23.33
2018-08-17T16:52:12.576Z,18.70
2018-08-17T16:54:39.790Z,20.07
2018-08-17T16:57:06.959Z,19.57
2018-08-17T16:59:34.587Z,19.17
2018-08-17T17:02:01.806Z,18.80
2018-08-17T17:04:29.521Z,22.13
2018-08-17T17:06:56.707Z,21.20
2018-08-17T17:09:23.886Z,18.33
2018-08-17T17:11:51.037Z,20.53
2018-08-17T17:14:18.268Z,18.57
2018-08-17T17:16:47.491Z,17.83
2018-08-17T17:19:16.213Z,19.60
2018-08-17T17:21:44.880Z,16.20
2018-08-17T17:24:12.068Z,16.87
2018-08-17T17:26:39.422Z,18.40
2018-08-17T17:29:06.871Z,17.80
2018-08-17T17:31:34.039Z,17.97
2018-08-17T17:34:01.347Z,16.57
2018-08-17T17:36:28.514Z,19.10
2018-08-17T17:38:55.684Z,16.53
2018-08-17T17:41:22.866Z,15.67
2018-08-17T17:43:50.046Z,16.00
2018-08-17T17:46:17.230Z,18.63
2018-08-17T17:48:44.435Z,16.03
2018-08-17T17:51:11.666Z,21.93
2018-08-17T17:53:38.819Z,17.90
2018-08-17T17:56:06.047Z,19.50
2018-08-17T17:58:33.237Z,18.47
2018-08-17T18:01:05.999Z,15.73
2018-08-17T18:03:33.182Z,17.67
2018-08-17T18:06:01.031Z,18.13
2018-08-17T18:08:29.045Z,18.03
2018-08-17T18:10:56.301Z,17.47
2018-08-17T18:13:23.496Z,17.47
2018-08-17T18:15:50.699Z,18.13
2018-08-17T18:18:17.927Z,17.17
2018-08-17T18:20:45.162Z,17.83
2018-08-17T18:23:12.327Z,17.47
2018-08-17T18:25:39.510Z,17.90
2018-08-17T18:28:06.989Z,19.20
2018-08-17T18:30:34.189Z,21.20
2018-08-17T18:33:01.361Z,18.27
2018-08-17T18:35:28.583Z,18.90
2018-08-17T18:37:55.863Z,18.30
2018-08-17T18:40:23.067Z,16.60
2018-08-17T18:42:50.268Z,19.13
2018-08-17T18:45:17.497Z,18.07
2018-08-17T18:47:44.651Z,19.60
2018-08-17T18:50:11.839Z,18.37
2018-08-17T18:52:39.111Z,18.47
2018-08-17T18:55:06.260Z,18.50
2018-08-17T18:57:33.469Z,19.03
2018-08-17T19:00:01.007Z,17.80
2018-08-17T19:02:28.219Z,18.33
2018-08-17T19:04:55.382Z,17.10
2018-08-17T19:07:22.566Z,19.13
2018-08-17T19:09:49.767Z,20.07
2018-08-17T19:12:16.935Z,20.57
2018-08-17T19:14:46.751Z,17.33
2018-08-17T19:17:19.309Z,19.13
2018-08-17T19:19:46.528Z,18.77
2018-08-17T19:22:13.726Z,20.70
2018-08-17T19:24:40.935Z,18.83
2018-08-17T19:27:08.163Z,19.20
2018-08-17T19:29:35.375Z,19.60
2018-08-17T19:32:02.564Z,20.10
2018-08-17T19:34:31.098Z,18.17
2018-08-17T19:36:58.311Z,20.90
2018-08-17T19:39:30.910Z,20.70
2018-08-17T19:41:58.258Z,21.57
2018-08-17T19:44:25.407Z,20.47
2018-08-17T19:46:52.588Z,18.80
2018-08-17T19:49:19.792Z,19.67
2018-08-17T19:51:46.968Z,18.33
2018-08-17T19:54:14.685Z,18.87
2018-08-17T19:56:43.998Z,17.67
2018-08-17T19:59:11.167Z,18.93
2018-08-17T20:01:38.409Z,16.90
2018-08-17T20:04:05.588Z,16.90
2018-08-17T20:06:32.796Z,15.93
2018-08-17T20:08:59.974Z,15.20
2018-08-17T20:11:27.991Z,15.80
2018-08-17T20:13:55.197Z,14.90
2018-08-17T20:16:28.689Z,18.13
2018-08-17T20:18:55.903Z,19.23
2018-08-17T20:21:24.070Z,15.20
2018-08-17T20:23:51.527Z,16.53
2018-08-17T20:26:19.148Z,15.00
2018-08-17T20:28:46.268Z,15.70
2018-08-17T20:31:14.177Z,15.83
2018-08-17T20:33:41.386Z,15.63
2018-08-17T20:36:12.056Z,15.73
2018-08-17T20:38:39.306Z,13.10
2018-08-17T20:41:06.514Z,13.53
2018-08-17T20:43:33.708Z,14.17
2018-08-17T20:46:00.883Z,17.30
2018-08-17T20:48:28.086Z,12.93
2018-08-17T20:50:55.319Z,12.93
2018-08-17T20:53:22.488Z,12.83
2018-08-17T20:55:49.679Z,12.63
2018-08-17T20:58:16.848Z,12.93
2018-08-17T21:00:44.406Z,11.33
2018-08-17T21:03:11.624Z,12.50
2018-08-17T21:05:38.805Z,11.23
2018-08-17T21:08:05.999Z,12.00
2018-08-17T21:10:33.246Z,10.80
2018-08-17T21:13:00.466Z,10.53
2018-08-17T21:15:27.663Z,10.97
2018-08-17T21:17:54.815Z,10.07
2018-08-17T21:20:22.026Z,11.40
2018-08-17T21:22:49.214Z,10.20
2018-08-17T21:25:16.454Z,11.30
2018-08-17T21:27:43.692Z,10.30
2018-08-17T21:30:11.283Z,11.40
2018-08-17T21:32:38.802Z,11.10
2018-08-17T21:35:06.829Z,11.57
2018-08-17T21:37:34.020Z,10.80
2018-08-17T21:40:01.180Z,10.37
2018-08-17T21:42:28.380Z,13.97
2018-08-17T21:44:55.551Z,9.43
2018-08-17T21:47:22.745Z,10.40
2018-08-17T21:49:49.931Z,9.30
2018-08-17T21:52:23.236Z,10.67
2018-08-17T21:54:50.419Z,9.87
2018-08-17T21:57:17.606Z,10.00
2018-08-17T21:59:49.197Z,10.27
2018-08-17T22:02:16.513Z,9.67
2018-08-17T22:04:43.877Z,10.87
2018-08-17T22:07:19.442Z,9.93
2018-08-17T22:09:46.605Z,9.73
2018-08-17T22:12:13.949Z,9.63
2018-08-17T22:14:41.129Z,10.80
2018-08-17T22:17:14.077Z,13.60
2018-08-17T22:19:42.538Z,13.80
2018-08-17T22:22:10.846Z,12.20
2018-08-17T22:24:43.491Z,13.90
2018-08-17T22:27:10.798Z,12.00
2018-08-17T22:29:38.133Z,14.20
2018-08-17T22:32:05.351Z,16.67
2018-08-17T22:34:32.510Z,11.73
2018-08-17T22:37:00.099Z,9.30
2018-08-17T22:39:27.286Z,11.03
2018-08-17T22:41:54.526Z,11.73
2018-08-17T22:44:22.444Z,12.87
2018-08-17T22:46:55.170Z,11.70
2018-08-17T22:49:22.368Z,13.10
2018-08-17T22:51:49.551Z,15.00
2018-08-17T22:54:16.739Z,17.27
2018-08-17T22:56:43.912Z,12.47
2018-08-17T22:59:11.112Z,13.73
2018-08-17T23:01:38.307Z,11.80
2018-08-17T23:04:05.603Z,12.83
2018-08-17T23:06:32.804Z,14.07
2018-08-17T23:08:59.993Z,13.97
2018-08-17T23:11:34.462Z,12.50
2018-08-17T23:14:06.017Z,13.60
2018-08-17T23:16:33.234Z,12.30
2018-08-17T23:19:00.426Z,13.50
2018-08-17T23:21:27.619Z,12.53
2018-08-17T23:23:54.783Z,12.00
2018-08-17T23:26:21.942Z,11.20
2018-08-17T23:28:49.139Z,12.27
2018-08-17T23:31:16.311Z,13.17
2018-08-17T23:33:43.494Z,12.97
2018-08-17T23:36:10.731Z,16.13
2018-08-17T23:38:37.937Z,14.60
2018-08-17T23:41:05.152Z,12.40
2018-08-17T23:43:32.326Z,13.60
2018-08-17T23:45:59.500Z,13.00
2018-08-17T23:48:26.683Z,13.33
2018-08-17T23:50:53.843Z,13.27
2018-08-17T23:53:21.069Z,12.03
2018-08-17T23:55:48.266Z,11.97
2018-08-17T23:58:15.458Z,11.23
